sensor_id;sensor_type;location;lat;lon;timestamp;P1;durP1;ratioP1;P2;durP2;ratioP2
10985;SDS011;5546;48.714;8.738;2022-10-16T00:01:11;11.57;;;4.03;;
10985;SDS011;5546;48.714;8.738;2022-10-16T00:03:39;10.20;;;4.03;;
10985;SDS011;5546;48.714;8.738;2022-10-16T00:06:06;10.13;;;4.10;;
10985;SDS011;5546;48.714;8.738;2022-10-16T00:08:33;9.67;;;3.57;;
10985;SDS011;5546;48.714;8.738;2022-10-16T00:11:04;7.33;;;3.40;;
10985;SDS011;5546;48.714;8.738;2022-10-16T00:13:35;11.03;;;3.97;;
10985;SDS011;5546;48.714;8.738;2022-10-16T00:16:02;10.20;;;3.57;;
10985;SDS011;5546;48.714;8.738;2022-10-16T00:18:28;12.70;;;3.70;;
10985;SDS011;5546;48.714;8.738;2022-10-16T00:20:55;14.10;;;4.67;;
10985;SDS011;5546;48.714;8.738;2022-10-16T00:23:21;8.07;;;3.80;;
10985;SDS011;5546;48.714;8.738;2022-10-16T00:25:57;8.43;;;3.50;;
10985;SDS011;5546;48.714;8.738;2022-10-16T00:28:23;13.43;;;3.57;;
10985;SDS011;5546;48.714;8.738;2022-10-16T00:30:49;11.87;;;3.87;;
10985;SDS011;5546;48.714;8.738;2022-10-16T00:33:15;9.27;;;3.50;;
10985;SDS011;5546;48.714;8.738;2022-10-16T00:35:40;12.93;;;3.20;;
10985;SDS011;5546;48.714;8.738;2022-10-16T00:38:06;11.07;;;3.87;;
10985;SDS011;5546;48.714;8.738;2022-10-16T00:40:31;8.60;;;3.40;;
10985;SDS011;5546;48.714;8.738;2022-10-16T00:42:57;15.13;;;4.03;;
10985;SDS011;5546;48.714;8.738;2022-10-16T00:45:23;9.47;;;3.80;;
10985;SDS011;5546;48.714;8.738;2022-10-16T00:47:49;8.83;;;3.50;;
10985;SDS011;5546;48.714;8.738;2022-10-16T00:50:27;12.17;;;3.90;;
10985;SDS011;5546;48.714;8.738;2022-10-16T00:52:58;3.40;;;2.77;;
10985;SDS011;5546;48.714;8.738;2022-10-16T00:55:26;5.47;;;2.83;;
10985;SDS011;5546;48.714;8.738;2022-10-16T00:57:54;7.60;;;3.27;;
10985;SDS011;5546;48.714;8.738;2022-10-16T01:00:22;4.83;;;3.50;;
10985;SDS011;5546;48.714;8.738;2022-10-16T01:02:53;6.37;;;3.27;;
10985;SDS011;5546;48.714;8.738;2022-10-16T01:05:21;4.87;;;2.83;;
10985;SDS011;5546;48.714;8.738;2022-10-16T01:13:25;3.63;;;2.40;;
10985;SDS011;5546;48.714;8.738;2022-10-16T01:15:55;9.97;;;2.90;;
10985;SDS011;5546;48.714;8.738;2022-10-16T01:21:34;8.67;;;2.97;;
10985;SDS011;5546;48.714;8.738;2022-10-16T01:24:12;4.97;;;2.70;;
10985;SDS011;5546;48.714;8.738;2022-10-16T01:27:08;6.03;;;3.17;;
10985;SDS011;5546;48.714;8.738;2022-10-16T01:29:39;11.77;;;3.00;;
10985;SDS011;5546;48.714;8.738;2022-10-16T01:32:16;3.77;;;2.50;;
10985;SDS011;5546;48.714;8.738;2022-10-16T01:34:51;13.23;;;2.80;;
10985;SDS011;5546;48.714;8.738;2022-10-16T01:37:32;8.20;;;2.87;;
10985;SDS011;5546;48.714;8.738;2022-10-16T01:40:05;2.97;;;2.57;;
10985;SDS011;5546;48.714;8.738;2022-10-16T01:42:36;5.40;;;2.27;;
10985;SDS011;5546;48.714;8.738;2022-10-16T01:45:07;8.80;;;2.50;;
10985;SDS011;5546;48.714;8.738;2022-10-16T01:47:36;7.40;;;2.80;;
10985;SDS011;5546;48.714;8.738;2022-10-16T01:50:03;10.23;;;3.00;;
10985;SDS011;5546;48.714;8.738;2022-10-16T01:52:31;6.70;;;2.63;;
10985;SDS011;5546;48.714;8.738;2022-10-16T01:55:00;9.63;;;2.80;;
10985;SDS011;5546;48.714;8.738;2022-10-16T01:57:29;5.10;;;2.50;;
10985;SDS011;5546;48.714;8.738;2022-10-16T01:59:56;7.63;;;2.93;;
10985;SDS011;5546;48.714;8.738;2022-10-16T02:02:26;9.27;;;2.60;;
10985;SDS011;5546;48.714;8.738;2022-10-16T02:04:57;8.77;;;2.50;;
10985;SDS011;5546;48.714;8.738;2022-10-16T02:07:28;6.77;;;2.50;;
10985;SDS011;5546;48.714;8.738;2022-10-16T02:09:53;5.33;;;2.33;;
10985;SDS011;5546;48.714;8.738;2022-10-16T02:12:26;5.53;;;1.90;;
10985;SDS011;5546;48.714;8.738;2022-10-16T02:14:54;1.90;;;1.80;;
10985;SDS011;5546;48.714;8.738;2022-10-16T02:17:20;2.67;;;2.30;;
10985;SDS011;5546;48.714;8.738;2022-10-16T02:19:47;5.30;;;2.07;;
10985;SDS011;5546;48.714;8.738;2022-10-16T02:22:36;7.23;;;2.10;;
10985;SDS011;5546;48.714;8.738;2022-10-16T02:25:10;3.17;;;2.10;;
10985;SDS011;5546;48.714;8.738;2022-10-16T02:30:44;7.23;;;2.30;;
10985;SDS011;5546;48.714;8.738;2022-10-16T02:33:16;9.37;;;2.53;;
10985;SDS011;5546;48.714;8.738;2022-10-16T02:35:43;6.20;;;2.13;;
10985;SDS011;5546;48.714;8.738;2022-10-16T02:38:11;10.57;;;2.13;;
10985;SDS011;5546;48.714;8.738;2022-10-16T02:40:39;4.50;;;2.00;;
10985;SDS011;5546;48.714;8.738;2022-10-16T02:43:05;8.20;;;2.60;;
10985;SDS011;5546;48.714;8.738;2022-10-16T02:45:31;8.13;;;2.10;;
10985;SDS011;5546;48.714;8.738;2022-10-16T02:47:57;6.70;;;2.30;;
10985;SDS011;5546;48.714;8.738;2022-10-16T02:50:23;5.20;;;2.10;;
10985;SDS011;5546;48.714;8.738;2022-10-16T02:52:49;5.23;;;2.00;;
10985;SDS011;5546;48.714;8.738;2022-10-16T02:55:15;2.17;;;2.00;;
10985;SDS011;5546;48.714;8.738;2022-10-16T02:57:41;4.67;;;1.93;;
10985;SDS011;5546;48.714;8.738;2022-10-16T03:00:08;4.33;;;2.13;;
10985;SDS011;5546;48.714;8.738;2022-10-16T03:02:35;9.80;;;2.43;;
10985;SDS011;5546;48.714;8.738;2022-10-16T03:05:00;7.03;;;1.90;;
10985;SDS011;5546;48.714;8.738;2022-10-16T03:07:26;7.27;;;2.23;;
10985;SDS011;5546;48.714;8.738;2022-10-16T03:09:51;3.10;;;1.80;;
10985;SDS011;5546;48.714;8.738;2022-10-16T03:12:17;7.53;;;2.07;;
10985;SDS011;5546;48.714;8.738;2022-10-16T03:14:42;5.20;;;2.37;;
10985;SDS011;5546;48.714;8.738;2022-10-16T03:17:08;8.30;;;2.20;;
10985;SDS011;5546;48.714;8.738;2022-10-16T03:19:33;6.10;;;2.17;;
10985;SDS011;5546;48.714;8.738;2022-10-16T03:22:00;7.90;;;2.40;;
10985;SDS011;5546;48.714;8.738;2022-10-16T03:24:26;5.90;;;2.83;;
10985;SDS011;5546;48.714;8.738;2022-10-16T03:26:51;9.40;;;2.67;;
10985;SDS011;5546;48.714;8.738;2022-10-16T03:29:17;8.07;;;2.50;;
10985;SDS011;5546;48.714;8.738;2022-10-16T03:31:42;13.07;;;2.70;;
10985;SDS011;5546;48.714;8.738;2022-10-16T03:34:08;5.33;;;2.10;;
10985;SDS011;5546;48.714;8.738;2022-10-16T03:36:33;4.50;;;2.40;;
10985;SDS011;5546;48.714;8.738;2022-10-16T03:38:59;4.70;;;2.57;;
10985;SDS011;5546;48.714;8.738;2022-10-16T03:41:25;8.23;;;2.67;;
10985;SDS011;5546;48.714;8.738;2022-10-16T03:43:50;4.27;;;2.40;;
10985;SDS011;5546;48.714;8.738;2022-10-16T03:46:16;7.57;;;2.30;;
10985;SDS011;5546;48.714;8.738;2022-10-16T03:48:41;4.60;;;2.40;;
10985;SDS011;5546;48.714;8.738;2022-10-16T03:51:07;7.67;;;2.80;;
10985;SDS011;5546;48.714;8.738;2022-10-16T03:53:32;9.50;;;2.70;;
10985;SDS011;5546;48.714;8.738;2022-10-16T03:55:58;6.40;;;2.20;;
10985;SDS011;5546;48.714;8.738;2022-10-16T03:58:23;5.43;;;2.07;;
10985;SDS011;5546;48.714;8.738;2022-10-16T04:00:49;4.97;;;1.97;;
10985;SDS011;5546;48.714;8.738;2022-10-16T04:03:14;5.33;;;2.37;;
10985;SDS011;5546;48.714;8.738;2022-10-16T04:05:40;9.93;;;2.17;;
10985;SDS011;5546;48.714;8.738;2022-10-16T04:08:05;4.37;;;2.10;;
10985;SDS011;5546;48.714;8.738;2022-10-16T04:10:31;8.27;;;2.40;;
10985;SDS011;5546;48.714;8.738;2022-10-16T04:12:57;6.00;;;2.03;;
10985;SDS011;5546;48.714;8.738;2022-10-16T04:15:23;6.80;;;2.20;;
10985;SDS011;5546;48.714;8.738;2022-10-16T04:17:49;6.57;;;2.30;;
10985;SDS011;5546;48.714;8.738;2022-10-16T04:20:15;10.43;;;2.20;;
10985;SDS011;5546;48.714;8.738;2022-10-16T04:22:40;5.93;;;2.13;;
10985;SDS011;5546;48.714;8.738;2022-10-16T04:25:06;6.70;;;2.53;;
10985;SDS011;5546;48.714;8.738;2022-10-16T04:27:32;7.23;;;2.13;;
10985;SDS011;5546;48.714;8.738;2022-10-16T04:29:58;9.40;;;2.00;;
10985;SDS011;5546;48.714;8.738;2022-10-16T04:32:24;3.90;;;2.20;;
10985;SDS011;5546;48.714;8.738;2022-10-16T04:34:51;3.63;;;2.00;;
10985;SDS011;5546;48.714;8.738;2022-10-16T04:37:16;10.73;;;2.40;;
10985;SDS011;5546;48.714;8.738;2022-10-16T04:39:42;6.90;;;2.47;;
10985;SDS011;5546;48.714;8.738;2022-10-16T04:42:08;7.73;;;2.37;;
10985;SDS011;5546;48.714;8.738;2022-10-16T04:44:34;6.03;;;2.20;;
10985;SDS011;5546;48.714;8.738;2022-10-16T04:46:59;17.30;;;3.10;;
10985;SDS011;5546;48.714;8.738;2022-10-16T04:49:25;8.57;;;2.80;;
10985;SDS011;5546;48.714;8.738;2022-10-16T04:51:50;4.80;;;2.37;;
10985;SDS011;5546;48.714;8.738;2022-10-16T04:54:16;5.37;;;2.70;;
10985;SDS011;5546;48.714;8.738;2022-10-16T04:56:41;4.60;;;2.83;;
10985;SDS011;5546;48.714;8.738;2022-10-16T04:59:15;7.33;;;2.83;;
10985;SDS011;5546;48.714;8.738;2022-10-16T05:01:42;11.33;;;2.60;;
10985;SDS011;5546;48.714;8.738;2022-10-16T05:04:07;6.33;;;2.87;;
10985;SDS011;5546;48.714;8.738;2022-10-16T05:06:34;7.50;;;3.07;;
10985;SDS011;5546;48.714;8.738;2022-10-16T05:08:59;6.17;;;2.80;;
10985;SDS011;5546;48.714;8.738;2022-10-16T05:11:25;4.70;;;2.60;;
10985;SDS011;5546;48.714;8.738;2022-10-16T05:13:50;6.13;;;2.60;;
10985;SDS011;5546;48.714;8.738;2022-10-16T05:16:16;9.93;;;2.57;;
10985;SDS011;5546;48.714;8.738;2022-10-16T05:18:42;8.73;;;2.70;;
10985;SDS011;5546;48.714;8.738;2022-10-16T05:21:07;13.43;;;2.80;;
10985;SDS011;5546;48.714;8.738;2022-10-16T05:23:33;11.97;;;3.10;;
10985;SDS011;5546;48.714;8.738;2022-10-16T05:25:59;9.70;;;3.13;;
10985;SDS011;5546;48.714;8.738;2022-10-16T05:28:25;6.20;;;3.30;;
10985;SDS011;5546;48.714;8.738;2022-10-16T05:30:52;9.13;;;2.93;;
10985;SDS011;5546;48.714;8.738;2022-10-16T05:33:22;7.23;;;3.20;;
10985;SDS011;5546;48.714;8.738;2022-10-16T05:35:49;9.77;;;3.03;;
10985;SDS011;5546;48.714;8.738;2022-10-16T05:38:18;13.27;;;3.07;;
10985;SDS011;5546;48.714;8.738;2022-10-16T05:40:49;6.23;;;3.37;;
10985;SDS011;5546;48.714;8.738;2022-10-16T05:43:16;6.20;;;2.83;;
10985;SDS011;5546;48.714;8.738;2022-10-16T05:45:42;7.83;;;2.90;;
10985;SDS011;5546;48.714;8.738;2022-10-16T05:48:07;6.10;;;2.83;;
10985;SDS011;5546;48.714;8.738;2022-10-16T05:50:33;10.10;;;3.20;;
10985;SDS011;5546;48.714;8.738;2022-10-16T05:52:58;6.23;;;2.57;;
10985;SDS011;5546;48.714;8.738;2022-10-16T05:55:24;9.03;;;2.90;;
10985;SDS011;5546;48.714;8.738;2022-10-16T05:57:49;9.93;;;3.03;;
10985;SDS011;5546;48.714;8.738;2022-10-16T06:00:15;7.53;;;2.97;;
10985;SDS011;5546;48.714;8.738;2022-10-16T06:02:40;9.70;;;2.70;;
10985;SDS011;5546;48.714;8.738;2022-10-16T06:05:06;6.63;;;2.00;;
10985;SDS011;5546;48.714;8.738;2022-10-16T06:07:33;6.20;;;2.67;;
10985;SDS011;5546;48.714;8.738;2022-10-16T06:10:00;9.13;;;2.97;;
10985;SDS011;5546;48.714;8.738;2022-10-16T06:12:26;5.27;;;2.50;;
10985;SDS011;5546;48.714;8.738;2022-10-16T06:14:52;3.43;;;2.37;;
10985;SDS011;5546;48.714;8.738;2022-10-16T06:17:17;7.77;;;2.27;;
10985;SDS011;5546;48.714;8.738;2022-10-16T06:19:43;5.77;;;2.23;;
10985;SDS011;5546;48.714;8.738;2022-10-16T06:22:08;4.10;;;2.10;;
10985;SDS011;5546;48.714;8.738;2022-10-16T06:24:34;9.90;;;2.50;;
10985;SDS011;5546;48.714;8.738;2022-10-16T06:26:59;6.40;;;2.43;;
10985;SDS011;5546;48.714;8.738;2022-10-16T06:29:25;4.03;;;2.27;;
10985;SDS011;5546;48.714;8.738;2022-10-16T06:31:50;4.97;;;2.43;;
10985;SDS011;5546;48.714;8.738;2022-10-16T06:34:17;8.87;;;3.20;;
10985;SDS011;5546;48.714;8.738;2022-10-16T06:36:43;4.47;;;2.63;;
10985;SDS011;5546;48.714;8.738;2022-10-16T06:39:08;8.23;;;2.33;;
10985;SDS011;5546;48.714;8.738;2022-10-16T06:41:34;8.37;;;3.80;;
10985;SDS011;5546;48.714;8.738;2022-10-16T06:44:00;5.93;;;2.90;;
10985;SDS011;5546;48.714;8.738;2022-10-16T06:46:26;4.73;;;2.07;;
10985;SDS011;5546;48.714;8.738;2022-10-16T06:48:52;4.03;;;2.17;;
10985;SDS011;5546;48.714;8.738;2022-10-16T06:51:21;9.80;;;2.27;;
10985;SDS011;5546;48.714;8.738;2022-10-16T06:53:49;5.10;;;2.00;;
10985;SDS011;5546;48.714;8.738;2022-10-16T06:56:18;3.27;;;2.43;;
10985;SDS011;5546;48.714;8.738;2022-10-16T06:58:48;4.23;;;2.47;;
10985;SDS011;5546;48.714;8.738;2022-10-16T07:01:14;5.17;;;2.40;;
10985;SDS011;5546;48.714;8.738;2022-10-16T07:03:42;2.63;;;2.40;;
10985;SDS011;5546;48.714;8.738;2022-10-16T07:06:09;3.73;;;2.03;;
10985;SDS011;5546;48.714;8.738;2022-10-16T07:08:37;6.40;;;2.20;;
10985;SDS011;5546;48.714;8.738;2022-10-16T07:11:05;3.73;;;2.07;;
10985;SDS011;5546;48.714;8.738;2022-10-16T07:13:33;3.10;;;2.70;;
10985;SDS011;5546;48.714;8.738;2022-10-16T07:16:03;4.63;;;2.10;;
10985;SDS011;5546;48.714;8.738;2022-10-16T07:18:30;4.73;;;1.83;;
10985;SDS011;5546;48.714;8.738;2022-10-16T07:21:02;5.27;;;1.80;;
10985;SDS011;5546;48.714;8.738;2022-10-16T07:23:38;3.73;;;1.63;;
10985;SDS011;5546;48.714;8.738;2022-10-16T07:26:04;3.63;;;1.83;;
10985;SDS011;5546;48.714;8.738;2022-10-16T07:28:30;1.70;;;1.60;;
10985;SDS011;5546;48.714;8.738;2022-10-16T07:31:00;2.67;;;1.80;;
10985;SDS011;5546;48.714;8.738;2022-10-16T07:33:27;2.80;;;1.70;;
10985;SDS011;5546;48.714;8.738;2022-10-16T07:35:53;5.57;;;1.80;;
10985;SDS011;5546;48.714;8.738;2022-10-16T07:38:20;3.80;;;1.73;;
10985;SDS011;5546;48.714;8.738;2022-10-16T07:40:46;3.20;;;1.80;;
10985;SDS011;5546;48.714;8.738;2022-10-16T07:43:12;3.10;;;1.67;;
10985;SDS011;5546;48.714;8.738;2022-10-16T07:45:45;3.33;;;1.97;;
10985;SDS011;5546;48.714;8.738;2022-10-16T07:48:12;2.47;;;2.00;;
10985;SDS011;5546;48.714;8.738;2022-10-16T07:50:38;5.83;;;2.27;;
10985;SDS011;5546;48.714;8.738;2022-10-16T07:53:03;2.17;;;1.97;;
10985;SDS011;5546;48.714;8.738;2022-10-16T07:55:29;2.43;;;1.70;;
10985;SDS011;5546;48.714;8.738;2022-10-16T07:57:54;5.93;;;2.00;;
10985;SDS011;5546;48.714;8.738;2022-10-16T08:00:20;5.63;;;1.90;;
10985;SDS011;5546;48.714;8.738;2022-10-16T08:02:45;4.07;;;1.70;;
10985;SDS011;5546;48.714;8.738;2022-10-16T08:05:11;3.30;;;1.95;;
10985;SDS011;5546;48.714;8.738;2022-10-16T08:07:37;3.13;;;2.10;;
10985;SDS011;5546;48.714;8.738;2022-10-16T08:10:03;3.80;;;2.05;;
10985;SDS011;5546;48.714;8.738;2022-10-16T08:12:29;7.30;;;2.03;;
10985;SDS011;5546;48.714;8.738;2022-10-16T08:14:54;4.88;;;2.15;;
10985;SDS011;5546;48.714;8.738;2022-10-16T08:17:19;2.63;;;1.90;;
10985;SDS011;5546;48.714;8.738;2022-10-16T08:19:45;3.35;;;2.00;;
10985;SDS011;5546;48.714;8.738;2022-10-16T08:22:12;2.92;;;2.13;;
10985;SDS011;5546;48.714;8.738;2022-10-16T08:24:41;5.97;;;2.13;;
10985;SDS011;5546;48.714;8.738;2022-10-16T08:27:06;2.75;;;1.95;;
10985;SDS011;5546;48.714;8.738;2022-10-16T08:29:33;4.00;;;2.00;;
10985;SDS011;5546;48.714;8.738;2022-10-16T08:31:59;6.55;;;2.10;;
10985;SDS011;5546;48.714;8.738;2022-10-16T08:34:24;2.92;;;2.08;;
10985;SDS011;5546;48.714;8.738;2022-10-16T08:36:52;5.07;;;2.00;;
10985;SDS011;5546;48.714;8.738;2022-10-16T08:39:18;4.55;;;1.85;;
10985;SDS011;5546;48.714;8.738;2022-10-16T08:41:59;2.27;;;1.70;;
10985;SDS011;5546;48.714;8.738;2022-10-16T08:47:13;3.10;;;2.30;;
10985;SDS011;5546;48.714;8.738;2022-10-16T08:49:53;4.83;;;2.07;;
10985;SDS011;5546;48.714;8.738;2022-10-16T08:52:22;4.50;;;2.23;;
10985;SDS011;5546;48.714;8.738;2022-10-16T08:54:54;2.70;;;1.70;;
10985;SDS011;5546;48.714;8.738;2022-10-16T08:57:21;5.73;;;3.10;;
10985;SDS011;5546;48.714;8.738;2022-10-16T08:59:49;4.22;;;1.90;;
10985;SDS011;5546;48.714;8.738;2022-10-16T09:07:31;3.25;;;1.70;;
10985;SDS011;5546;48.714;8.738;2022-10-16T09:10:15;6.03;;;2.42;;
10985;SDS011;5546;48.714;8.738;2022-10-16T09:16:03;3.95;;;2.13;;
10985;SDS011;5546;48.714;8.738;2022-10-16T09:18:58;4.13;;;1.63;;
10985;SDS011;5546;48.714;8.738;2022-10-16T09:21:38;3.28;;;2.10;;
10985;SDS011;5546;48.714;8.738;2022-10-16T09:24:10;8.32;;;2.05;;
10985;SDS011;5546;48.714;8.738;2022-10-16T09:26:39;4.07;;;1.80;;
10985;SDS011;5546;48.714;8.738;2022-10-16T09:29:04;2.63;;;1.60;;
10985;SDS011;5546;48.714;8.738;2022-10-16T09:31:30;3.63;;;1.70;;
10985;SDS011;5546;48.714;8.738;2022-10-16T09:33:58;4.72;;;2.25;;
10985;SDS011;5546;48.714;8.738;2022-10-16T09:36:25;3.08;;;1.80;;
10985;SDS011;5546;48.714;8.738;2022-10-16T09:39:05;3.50;;;1.67;;
10985;SDS011;5546;48.714;8.738;2022-10-16T09:41:37;2.83;;;1.52;;
10985;SDS011;5546;48.714;8.738;2022-10-16T09:44:15;10.77;;;2.08;;
10985;SDS011;5546;48.714;8.738;2022-10-16T09:49:54;4.50;;;1.60;;
10985;SDS011;5546;48.714;8.738;2022-10-16T09:52:20;2.22;;;1.75;;
10985;SDS011;5546;48.714;8.738;2022-10-16T09:54:54;3.05;;;1.67;;
10985;SDS011;5546;48.714;8.738;2022-10-16T09:57:24;1.73;;;1.50;;
10985;SDS011;5546;48.714;8.738;2022-10-16T09:59:55;2.25;;;1.70;;
10985;SDS011;5546;48.714;8.738;2022-10-16T10:02:31;3.35;;;1.75;;
10985;SDS011;5546;48.714;8.738;2022-10-16T10:05:00;2.40;;;2.03;;
10985;SDS011;5546;48.714;8.738;2022-10-16T10:07:27;2.47;;;1.70;;
10985;SDS011;5546;48.714;8.738;2022-10-16T10:09:58;1.48;;;1.30;;
10985;SDS011;5546;48.714;8.738;2022-10-16T10:12:25;3.33;;;1.50;;
10985;SDS011;5546;48.714;8.738;2022-10-16T10:14:54;5.30;;;1.77;;
10985;SDS011;5546;48.714;8.738;2022-10-16T10:17:21;3.28;;;1.80;;
10985;SDS011;5546;48.714;8.738;2022-10-16T10:19:55;1.75;;;1.42;;
10985;SDS011;5546;48.714;8.738;2022-10-16T10:22:41;9.77;;;1.77;;
10985;SDS011;5546;48.714;8.738;2022-10-16T10:27:56;2.17;;;1.50;;
10985;SDS011;5546;48.714;8.738;2022-10-16T10:30:59;5.57;;;1.80;;
10985;SDS011;5546;48.714;8.738;2022-10-16T10:36:45;2.38;;;1.60;;
10985;SDS011;5546;48.714;8.738;2022-10-16T10:44:52;2.80;;;1.45;;
10985;SDS011;5546;48.714;8.738;2022-10-16T10:47:32;8.02;;;1.73;;
10985;SDS011;5546;48.714;8.738;2022-10-16T10:50:14;3.20;;;1.65;;
10985;SDS011;5546;48.714;8.738;2022-10-16T10:55:46;2.53;;;1.40;;
10985;SDS011;5546;48.714;8.738;2022-10-16T11:01:39;4.35;;;1.40;;
10985;SDS011;5546;48.714;8.738;2022-10-16T11:04:32;6.20;;;1.40;;
10985;SDS011;5546;48.714;8.738;2022-10-16T11:07:00;4.07;;;1.45;;
10985;SDS011;5546;48.714;8.738;2022-10-16T11:09:44;5.43;;;1.48;;
10985;SDS011;5546;48.714;8.738;2022-10-16T11:12:33;5.82;;;1.60;;
10985;SDS011;5546;48.714;8.738;2022-10-16T11:17:33;4.72;;;1.70;;
10985;SDS011;5546;48.714;8.738;2022-10-16T11:22:44;3.97;;;1.50;;
10985;SDS011;5546;48.714;8.738;2022-10-16T11:25:22;4.22;;;1.73;;
10985;SDS011;5546;48.714;8.738;2022-10-16T11:27:55;4.32;;;1.90;;
10985;SDS011;5546;48.714;8.738;2022-10-16T11:30:26;5.68;;;1.70;;
10985;SDS011;5546;48.714;8.738;2022-10-16T11:33:04;8.13;;;2.17;;
10985;SDS011;5546;48.714;8.738;2022-10-16T11:38:09;6.82;;;1.80;;
10985;SDS011;5546;48.714;8.738;2022-10-16T11:40:40;6.00;;;1.65;;
10985;SDS011;5546;48.714;8.738;2022-10-16T11:43:11;8.32;;;1.63;;
10985;SDS011;5546;48.714;8.738;2022-10-16T11:45:51;2.03;;;1.50;;
10985;SDS011;5546;48.714;8.738;2022-10-16T11:48:39;3.58;;;1.60;;
10985;SDS011;5546;48.714;8.738;2022-10-16T11:53:59;5.05;;;1.67;;
10985;SDS011;5546;48.714;8.738;2022-10-16T11:56:52;3.22;;;1.60;;
10985;SDS011;5546;48.714;8.738;2022-10-16T11:59:31;3.83;;;1.95;;
10985;SDS011;5546;48.714;8.738;2022-10-16T12:04:34;3.47;;;1.85;;
10985;SDS011;5546;48.714;8.738;2022-10-16T12:07:21;8.18;;;1.70;;
10985;SDS011;5546;48.714;8.738;2022-10-16T12:09:52;8.82;;;1.70;;
10985;SDS011;5546;48.714;8.738;2022-10-16T12:12:24;8.85;;;2.00;;
10985;SDS011;5546;48.714;8.738;2022-10-16T12:14:59;6.30;;;1.70;;
10985;SDS011;5546;48.714;8.738;2022-10-16T12:17:34;7.63;;;1.75;;
10985;SDS011;5546;48.714;8.738;2022-10-16T12:20:14;9.93;;;1.92;;
10985;SDS011;5546;48.714;8.738;2022-10-16T12:22:53;4.93;;;1.50;;
10985;SDS011;5546;48.714;8.738;2022-10-16T12:25:32;4.65;;;1.50;;
10985;SDS011;5546;48.714;8.738;2022-10-16T12:28:05;5.38;;;1.60;;
10985;SDS011;5546;48.714;8.738;2022-10-16T12:30:40;2.40;;;1.45;;
10985;SDS011;5546;48.714;8.738;2022-10-16T12:36:06;4.97;;;1.55;;
10985;SDS011;5546;48.714;8.738;2022-10-16T12:38:49;5.32;;;1.60;;
10985;SDS011;5546;48.714;8.738;2022-10-16T12:41:26;2.70;;;1.38;;
10985;SDS011;5546;48.714;8.738;2022-10-16T12:43:53;4.18;;;1.80;;
10985;SDS011;5546;48.714;8.738;2022-10-16T12:48:47;5.13;;;2.00;;
10985;SDS011;5546;48.714;8.738;2022-10-16T12:51:33;5.57;;;1.95;;
10985;SDS011;5546;48.714;8.738;2022-10-16T12:54:03;5.93;;;2.20;;
10985;SDS011;5546;48.714;8.738;2022-10-16T13:02:06;2.20;;;1.80;;
10985;SDS011;5546;48.714;8.738;2022-10-16T13:05:00;3.92;;;2.28;;
10985;SDS011;5546;48.714;8.738;2022-10-16T13:16:37;5.63;;;2.15;;
10985;SDS011;5546;48.714;8.738;2022-10-16T13:25:02;3.03;;;2.28;;
10985;SDS011;5546;48.714;8.738;2022-10-16T13:27:50;4.88;;;2.50;;
10985;SDS011;5546;48.714;8.738;2022-10-16T13:30:21;3.03;;;2.30;;
10985;SDS011;5546;48.714;8.738;2022-10-16T13:32:53;3.20;;;2.10;;
10985;SDS011;5546;48.714;8.738;2022-10-16T13:35:33;4.55;;;2.47;;
10985;SDS011;5546;48.714;8.738;2022-10-16T13:38:13;5.55;;;2.22;;
10985;SDS011;5546;48.714;8.738;2022-10-16T13:40:56;7.10;;;2.45;;
10985;SDS011;5546;48.714;8.738;2022-10-16T13:43:35;4.28;;;2.25;;
10985;SDS011;5546;48.714;8.738;2022-10-16T13:46:10;7.43;;;2.50;;
10985;SDS011;5546;48.714;8.738;2022-10-16T13:48:39;3.35;;;2.47;;
10985;SDS011;5546;48.714;8.738;2022-10-16T13:51:14;4.68;;;2.30;;
10985;SDS011;5546;48.714;8.738;2022-10-16T13:53:42;5.70;;;2.83;;
10985;SDS011;5546;48.714;8.738;2022-10-16T13:56:12;4.82;;;2.80;;
10985;SDS011;5546;48.714;8.738;2022-10-16T13:58:43;6.55;;;2.65;;
10985;SDS011;5546;48.714;8.738;2022-10-16T14:01:16;14.70;;;10.10;;
10985;SDS011;5546;48.714;8.738;2022-10-16T14:03:45;10.35;;;3.42;;
10985;SDS011;5546;48.714;8.738;2022-10-16T14:06:15;6.25;;;2.90;;
10985;SDS011;5546;48.714;8.738;2022-10-16T14:08:44;8.52;;;3.10;;
10985;SDS011;5546;48.714;8.738;2022-10-16T14:11:13;7.20;;;3.00;;
10985;SDS011;5546;48.714;8.738;2022-10-16T14:13:48;7.78;;;2.72;;
10985;SDS011;5546;48.714;8.738;2022-10-16T14:16:18;6.40;;;2.97;;
10985;SDS011;5546;48.714;8.738;2022-10-16T14:18:51;4.25;;;2.70;;
10985;SDS011;5546;48.714;8.738;2022-10-16T14:21:19;5.00;;;2.75;;
10985;SDS011;5546;48.714;8.738;2022-10-16T14:23:44;12.23;;;2.65;;
10985;SDS011;5546;48.714;8.738;2022-10-16T14:28:38;5.22;;;2.80;;
10985;SDS011;5546;48.714;8.738;2022-10-16T14:31:22;9.93;;;2.80;;
10985;SDS011;5546;48.714;8.738;2022-10-16T14:33:57;7.03;;;3.22;;
10985;SDS011;5546;48.714;8.738;2022-10-16T14:36:24;5.55;;;2.88;;
10985;SDS011;5546;48.714;8.738;2022-10-16T14:38:56;7.50;;;3.05;;
10985;SDS011;5546;48.714;8.738;2022-10-16T14:41:31;2.67;;;2.42;;
10985;SDS011;5546;48.714;8.738;2022-10-16T14:44:05;9.20;;;3.00;;
10985;SDS011;5546;48.714;8.738;2022-10-16T14:46:32;4.22;;;2.70;;
10985;SDS011;5546;48.714;8.738;2022-10-16T14:49:02;11.85;;;2.88;;
10985;SDS011;5546;48.714;8.738;2022-10-16T14:51:40;5.80;;;2.42;;
10985;SDS011;5546;48.714;8.738;2022-10-16T14:54:08;6.95;;;2.55;;
10985;SDS011;5546;48.714;8.738;2022-10-16T14:56:45;3.88;;;3.08;;
10985;SDS011;5546;48.714;8.738;2022-10-16T14:59:21;3.55;;;2.45;;
10985;SDS011;5546;48.714;8.738;2022-10-16T15:02:02;4.80;;;2.70;;
10985;SDS011;5546;48.714;8.738;2022-10-16T15:04:41;4.90;;;2.65;;
10985;SDS011;5546;48.714;8.738;2022-10-16T15:07:07;5.47;;;2.78;;
10985;SDS011;5546;48.714;8.738;2022-10-16T15:09:32;5.78;;;2.85;;
10985;SDS011;5546;48.714;8.738;2022-10-16T15:11:58;3.95;;;2.53;;
10985;SDS011;5546;48.714;8.738;2022-10-16T15:14:23;6.20;;;2.47;;
10985;SDS011;5546;48.714;8.738;2022-10-16T15:16:49;4.25;;;2.70;;
10985;SDS011;5546;48.714;8.738;2022-10-16T15:19:14;3.30;;;2.58;;
10985;SDS011;5546;48.714;8.738;2022-10-16T15:21:40;6.43;;;2.75;;
10985;SDS011;5546;48.714;8.738;2022-10-16T15:24:08;5.45;;;2.75;;
10985;SDS011;5546;48.714;8.738;2022-10-16T15:26:36;7.88;;;2.85;;
10985;SDS011;5546;48.714;8.738;2022-10-16T15:29:04;10.50;;;2.78;;
10985;SDS011;5546;48.714;8.738;2022-10-16T15:31:30;9.55;;;2.85;;
10985;SDS011;5546;48.714;8.738;2022-10-16T15:33:56;6.30;;;2.60;;
10985;SDS011;5546;48.714;8.738;2022-10-16T15:36:30;8.82;;;3.25;;
10985;SDS011;5546;48.714;8.738;2022-10-16T15:38:59;6.25;;;3.30;;
10985;SDS011;5546;48.714;8.738;2022-10-16T15:41:25;7.32;;;3.42;;
10985;SDS011;5546;48.714;8.738;2022-10-16T15:43:51;5.38;;;3.47;;
10985;SDS011;5546;48.714;8.738;2022-10-16T15:46:18;10.88;;;3.35;;
10985;SDS011;5546;48.714;8.738;2022-10-16T15:48:45;8.05;;;3.30;;
10985;SDS011;5546;48.714;8.738;2022-10-16T15:51:11;6.70;;;2.92;;
10985;SDS011;5546;48.714;8.738;2022-10-16T15:53:37;9.18;;;3.25;;
10985;SDS011;5546;48.714;8.738;2022-10-16T15:56:06;13.32;;;3.50;;
10985;SDS011;5546;48.714;8.738;2022-10-16T15:58:33;6.82;;;3.20;;
10985;SDS011;5546;48.714;8.738;2022-10-16T16:00:59;9.37;;;3.60;;
10985;SDS011;5546;48.714;8.738;2022-10-16T16:03:26;8.05;;;3.50;;
10985;SDS011;5546;48.714;8.738;2022-10-16T16:05:53;15.10;;;3.90;;
10985;SDS011;5546;48.714;8.738;2022-10-16T16:08:19;11.65;;;3.80;;
10985;SDS011;5546;48.714;8.738;2022-10-16T16:10:44;13.63;;;3.90;;
10985;SDS011;5546;48.714;8.738;2022-10-16T16:13:10;12.00;;;3.17;;
10985;SDS011;5546;48.714;8.738;2022-10-16T16:15:38;12.07;;;3.23;;
10985;SDS011;5546;48.714;8.738;2022-10-16T16:18:04;10.73;;;3.60;;
10985;SDS011;5546;48.714;8.738;2022-10-16T16:20:30;10.90;;;3.87;;
10985;SDS011;5546;48.714;8.738;2022-10-16T16:22:56;7.90;;;3.57;;
10985;SDS011;5546;48.714;8.738;2022-10-16T16:25:22;5.07;;;3.37;;
10985;SDS011;5546;48.714;8.738;2022-10-16T16:27:47;11.83;;;3.87;;
10985;SDS011;5546;48.714;8.738;2022-10-16T16:30:13;4.40;;;3.40;;
10985;SDS011;5546;48.714;8.738;2022-10-16T16:32:38;6.77;;;3.30;;
10985;SDS011;5546;48.714;8.738;2022-10-16T16:35:04;5.53;;;3.37;;
10985;SDS011;5546;48.714;8.738;2022-10-16T16:37:30;6.73;;;3.53;;
10985;SDS011;5546;48.714;8.738;2022-10-16T16:39:56;3.73;;;3.27;;